Time;durP1;ratioP1;P1;durP2;ratioP2;P2;SDS_P1;SDS_P2;PMS_P1;PMS_P2;Temp;Humidity;BMP_temperature;BMP_pressure;BME280_temperature;BME280_humidity;BME280_pressure;Samples;Min_cycle;Max_cycle;Signal;HPM_P1;HPM_P2
2022/01/31 00:00:56;;;;;;;13.75;3.17;;;2.10;81.50;;;;;;5011718;28;20557;-79
2022/01/31 00:03:22;;;;;;;7.03;3.05;;;2.10;81.50;;;;;;5018083;28;20132;-79
2022/01/31 00:05:48;;;;;;;15.02;2.75;;;2.10;81.60;;;;;;5016581;28;20112;-79
2022/01/31 00:08:20;;;;;;;12.63;3.00;;;2.10;81.60;;;;;;5028807;28;20069;-78
2022/01/31 00:10:46;;;;;;;12.85;2.80;;;2.10;81.60;;;;;;5006798;28;20044;-79
2022/01/31 00:13:18;;;;;;;14.63;3.10;;;2.10;81.60;;;;;;5029408;28;20044;-79
2022/01/31 00:15:47;;;;;;;13.02;2.90;;;2.10;81.60;;;;;;5027256;28;20116;-79
2022/01/31 00:18:12;;;;;;;19.17;2.88;;;2.10;81.60;;;;;;5014954;28;20048;-79
2022/01/31 00:20:38;;;;;;;10.45;2.55;;;2.10;81.70;;;;;;5017612;28;20037;-79
2022/01/31 00:23:03;;;;;;;15.60;2.90;;;2.10;81.70;;;;;;5008673;28;20040;-79
2022/01/31 00:25:29;;;;;;;14.27;3.05;;;2.20;81.70;;;;;;5025435;28;20458;-79
2022/01/31 00:27:54;;;;;;;9.40;2.35;;;2.20;81.70;;;;;;5025799;28;20044;-78
2022/01/31 00:30:20;;;;;;;9.48;2.47;;;2.20;81.70;;;;;;5008041;28;20037;-78
2022/01/31 00:32:47;;;;;;;14.65;2.40;;;2.20;81.70;;;;;;5021253;28;20051;-79
2022/01/31 00:35:13;;;;;;;11.73;3.28;;;2.30;81.80;;;;;;5027133;28;20427;-79
2022/01/31 00:37:39;;;;;;;8.52;2.63;;;2.20;81.80;;;;;;5012225;28;20039;-79
2022/01/31 00:40:05;;;;;;;16.88;2.45;;;2.20;81.80;;;;;;5018681;28;20033;-79
2022/01/31 00:42:31;;;;;;;14.90;2.45;;;2.20;81.80;;;;;;5024629;28;20053;-79
2022/01/31 00:45:09;;;;;;;9.98;2.63;;;2.30;81.80;;;;;;5043254;28;20021;-79
2022/01/31 00:47:37;;;;;;;13.23;2.78;;;2.30;81.80;;;;;;4993384;28;20600;-79
2022/01/31 00:50:07;;;;;;;17.08;3.17;;;2.30;81.80;;;;;;5045654;28;20491;-79
2022/01/31 00:52:33;;;;;;;16.60;2.38;;;2.30;81.80;;;;;;5018138;28;20068;-79
2022/01/31 00:54:59;;;;;;;7.40;2.30;;;2.30;81.70;;;;;;5020540;28;20060;-79
2022/01/31 00:57:25;;;;;;;14.48;2.90;;;2.40;81.90;;;;;;5008934;28;20037;-79
2022/01/31 00:59:51;;;;;;;12.90;3.17;;;2.40;81.90;;;;;;5022040;28;20044;-79
2022/01/31 01:02:22;;;;;;;13.32;2.47;;;2.40;81.90;;;;;;5011861;28;20033;-79
2022/01/31 01:04:48;;;;;;;18.77;2.72;;;2.40;81.90;;;;;;5046902;28;20033;-79
2022/01/31 01:07:14;;;;;;;13.10;2.88;;;2.40;81.70;;;;;;4999101;28;20785;-79
2022/01/31 01:09:44;;;;;;;17.50;3.03;;;2.40;81.70;;;;;;5032946;28;20136;-79
2022/01/31 01:12:10;;;;;;;8.18;2.10;;;2.50;81.70;;;;;;5029132;28;20064;-79
2022/01/31 01:14:36;;;;;;;10.20;2.55;;;2.50;81.80;;;;;;4999069;28;20394;-79
2022/01/31 01:17:01;;;;;;;15.63;3.10;;;2.50;81.70;;;;;;5027593;28;20107;-80
2022/01/31 01:19:27;;;;;;;10.40;2.70;;;2.50;81.70;;;;;;5026923;28;20143;-79
2022/01/31 01:21:52;;;;;;;7.50;2.28;;;2.50;81.60;;;;;;5043118;28;20120;-79
2022/01/31 01:24:18;;;;;;;10.48;1.77;;;2.50;81.60;;;;;;5035024;28;20054;-79
2022/01/31 01:26:43;;;;;;;8.77;2.03;;;2.50;81.70;;;;;;5040217;28;20509;-79
2022/01/31 01:29:09;;;;;;;13.20;2.10;;;2.50;81.80;;;;;;4997153;28;20656;-79
2022/01/31 01:31:35;;;;;;;20.10;2.65;;;2.60;81.80;;;;;;5023263;28;20491;-78
2022/01/31 01:34:01;;;;;;;9.73;2.28;;;2.60;81.80;;;;;;5028907;28;20519;-79
2022/01/31 01:36:26;;;;;;;8.45;2.55;;;2.60;81.80;;;;;;5022810;28;20061;-79
2022/01/31 01:38:52;;;;;;;19.17;2.45;;;2.60;81.80;;;;;;5019206;28;20045;-79
2022/01/31 01:41:17;;;;;;;20.45;4.10;;;2.60;81.80;;;;;;5011735;28;20112;-80
2022/01/31 01:43:43;;;;;;;12.15;2.47;;;2.60;81.90;;;;;;5011447;28;20039;-79
2022/01/31 01:46:09;;;;;;;9.75;2.42;;;2.60;82.00;;;;;;5012147;28;20033;-79
2022/01/31 01:48:34;;;;;;;15.90;2.92;;;2.60;82.00;;;;;;5015665;28;20037;-79
2022/01/31 01:51:00;;;;;;;8.98;2.72;;;2.60;82.00;;;;;;5032058;28;20144;-79
2022/01/31 01:53:25;;;;;;;12.40;2.38;;;2.60;82.00;;;;;;4985935;28;20051;-79
2022/01/31 01:55:53;;;;;;;11.23;2.22;;;2.60;82.00;;;;;;5000855;28;20562;-79
2022/01/31 01:58:23;;;;;;;15.68;2.85;;;2.60;82.00;;;;;;5021629;28;20475;-79
2022/01/31 02:00:59;;;;;;;5.65;2.10;;;2.60;82.00;;;;;;5005814;28;20029;-79
2022/01/31 02:03:25;;;;;;;11.48;2.28;;;2.60;82.10;;;;;;5016499;28;20406;-79
2022/01/31 02:05:51;;;;;;;9.73;2.15;;;2.60;82.10;;;;;;4989391;28;20044;-79
2022/01/31 02:08:18;;;;;;;23.25;2.58;;;2.60;82.20;;;;;;5021586;28;20029;-80
2022/01/31 02:10:43;;;;;;;12.38;3.15;;;2.60;82.10;;;;;;5028316;28;20040;-79
2022/01/31 02:13:09;;;;;;;7.88;2.53;;;2.70;82.20;;;;;;5024228;28;20394;-79
2022/01/31 02:15:35;;;;;;;8.70;2.05;;;2.70;82.20;;;;;;4999400;28;20049;-79
2022/01/31 02:18:01;;;;;;;15.57;2.90;;;2.70;82.20;;;;;;5015314;28;20040;-79
2022/01/31 02:20:27;;;;;;;11.35;2.90;;;2.70;82.30;;;;;;5009423;28;20116;-79
2022/01/31 02:22:53;;;;;;;8.65;2.50;;;2.70;82.20;;;;;;5042363;28;20180;-79
2022/01/31 02:25:18;;;;;;;8.07;2.05;;;2.70;82.30;;;;;;4997396;28;20147;-80
2022/01/31 02:27:44;;;;;;;8.77;2.17;;;2.70;82.30;;;;;;5044093;28;20049;-79
2022/01/31 02:30:12;;;;;;;12.25;2.70;;;2.70;82.30;;;;;;5025826;28;20574;-79
2022/01/31 02:32:38;;;;;;;9.48;2.38;;;2.70;82.40;;;;;;4993763;28;20075;-80
2022/01/31 02:35:04;;;;;;;8.70;2.55;;;2.80;82.40;;;;;;5024872;28;20114;-79
2022/01/31 02:37:30;;;;;;;11.63;2.42;;;2.80;82.40;;;;;;5026605;28;20463;-79
2022/01/31 02:39:55;;;;;;;12.43;2.90;;;2.80;82.50;;;;;;5002060;28;20048;-79
2022/01/31 02:42:22;;;;;;;5.72;2.20;;;2.80;82.50;;;;;;5038851;28;20033;-79
2022/01/31 02:44:48;;;;;;;12.30;2.55;;;2.80;82.50;;;;;;5030713;28;20499;-79
2022/01/31 02:47:20;;;;;;;9.82;2.40;;;2.80;82.50;;;;;;4991386;28;20075;-79
2022/01/31 02:50:19;;;;;;;6.25;1.92;;;2.80;82.50;;;;;;5008442;28;20044;-79
2022/01/31 02:52:45;;;;;;;7.97;2.90;;;2.80;82.50;;;;;;5031441;28;20048;-80
2022/01/31 02:55:10;;;;;;;6.40;1.88;;;2.90;82.60;;;;;;5015549;28;20663;-79
2022/01/31 02:57:36;;;;;;;8.70;2.55;;;2.80;82.60;;;;;;5014245;28;20033;-80
2022/01/31 03:00:02;;;;;;;8.73;1.90;;;2.90;82.60;;;;;;5012691;28;20033;-79
2022/01/31 03:02:27;;;;;;;6.88;1.67;;;2.90;82.60;;;;;;5000645;28;20037;-79
2022/01/31 03:04:53;;;;;;;8.27;2.42;;;2.90;82.70;;;;;;5026914;28;20036;-79
2022/01/31 03:07:18;;;;;;;4.75;1.80;;;2.90;82.70;;;;;;5033183;28;20136;-80
2022/01/31 03:09:44;;;;;;;8.40;2.45;;;2.90;82.70;;;;;;5023293;28;20025;-79
2022/01/31 03:12:09;;;;;;;8.70;2.75;;;2.90;82.80;;;;;;5033278;28;20025;-80
2022/01/31 03:14:35;;;;;;;11.85;2.15;;;2.90;82.80;;;;;;4996829;28;20044;-80
2022/01/31 03:17:04;;;;;;;10.00;2.33;;;2.90;82.80;;;;;;4993816;28;20037;-80
2022/01/31 03:19:29;;;;;;;12.13;2.30;;;2.90;82.80;;;;;;5028697;28;20037;-79
2022/01/31 03:21:55;;;;;;;4.85;2.10;;;2.90;82.80;;;;;;4998299;28;20040;-80
2022/01/31 03:24:20;;;;;;;9.02;2.10;;;2.90;82.90;;;;;;5017434;28;20029;-80
2022/01/31 03:26:46;;;;;;;6.88;2.28;;;2.90;82.90;;;;;;5030588;28;20464;-80
2022/01/31 03:29:11;;;;;;;18.83;2.60;;;2.90;82.80;;;;;;5028317;28;20033;-80
2022/01/31 03:31:37;;;;;;;12.52;2.35;;;2.90;82.80;;;;;;5025471;28;20030;-79
2022/01/31 03:34:03;;;;;;;13.65;2.42;;;3.00;82.90;;;;;;5031836;28;20479;-79
2022/01/31 03:36:28;;;;;;;5.68;1.88;;;3.00;82.90;;;;;;5026160;28;20765;-80
2022/01/31 03:38:54;;;;;;;6.70;1.73;;;3.00;82.90;;;;;;5023133;28;20499;-80
2022/01/31 03:41:20;;;;;;;6.38;1.90;;;3.00;83.00;;;;;;5023098;28;20029;-80
2022/01/31 03:43:46;;;;;;;7.80;1.88;;;3.00;83.00;;;;;;5011452;28;21209;-79
2022/01/31 03:46:12;;;;;;;8.65;2.22;;;3.00;83.00;;;;;;5038414;28;20532;-79
2022/01/31 03:48:37;;;;;;;9.88;2.00;;;3.00;83.00;;;;;;4984588;28;20029;-80
2022/01/31 03:51:04;;;;;;;7.53;2.25;;;3.00;83.10;;;;;;5023375;28;20037;-79
2022/01/31 03:53:29;;;;;;;6.28;1.75;;;3.00;83.00;;;;;;5003531;28;20668;-79
2022/01/31 03:56:01;;;;;;;7.38;2.20;;;3.00;83.10;;;;;;5006144;28;20041;-79
2022/01/31 03:58:27;;;;;;;5.63;1.90;;;3.00;83.10;;;;;;5025382;28;20140;-80
2022/01/31 04:00:56;;;;;;;5.68;2.00;;;3.00;83.10;;;;;;5020528;28;20124;-79
2022/01/31 04:03:31;;;;;;;9.85;2.15;;;3.10;83.20;;;;;;4995246;28;20056;-82
2022/01/31 04:05:57;;;;;;;10.40;1.80;;;3.00;83.20;;;;;;5019045;28;20091;-80
2022/01/31 04:08:22;;;;;;;6.38;1.90;;;3.00;83.10;;;;;;5027922;28;20049;-79
2022/01/31 04:10:48;;;;;;;9.32;2.50;;;3.00;83.10;;;;;;5024471;28;20064;-79
2022/01/31 04:13:16;;;;;;;5.70;1.85;;;3.10;83.20;;;;;;5042904;28;20071;-80
2022/01/31 04:15:42;;;;;;;7.50;2.78;;;3.10;83.20;;;;;;5024452;28;20044;-80
2022/01/31 04:18:07;;;;;;;11.48;2.40;;;3.10;83.30;;;;;;5043526;28;20232;-80
2022/01/31 04:20:33;;;;;;;10.65;2.15;;;3.10;83.30;;;;;;5018241;28;20066;-79
2022/01/31 04:23:04;;;;;;;8.45;2.30;;;3.10;83.30;;;;;;5026900;28;20086;-79
2022/01/31 04:25:42;;;;;;;8.80;2.30;;;3.10;83.30;;;;;;5031193;28;20511;-79
2022/01/31 04:28:16;;;;;;;9.48;2.35;;;3.10;83.30;;;;;;5030938;28;20045;-79
2022/01/31 04:30:49;;;;;;;7.88;2.42;;;3.10;83.40;;;;;;5015410;28;20056;-80
2022/01/31 04:33:15;;;;;;;6.95;2.25;;;3.10;83.40;;;;;;5013172;28;20040;-79
2022/01/31 04:35:40;;;;;;;11.18;2.70;;;3.20;83.50;;;;;;5031288;28;20041;-79
2022/01/31 04:38:06;;;;;;;7.03;2.30;;;3.20;83.50;;;;;;5008202;28;20041;-80
2022/01/31 04:40:31;;;;;;;10.40;2.05;;;3.20;84.30;;;;;;5030607;28;20060;-80
2022/01/31 04:42:57;;;;;;;6.68;2.38;;;3.20;83.50;;;;;;5004651;28;20644;-79
2022/01/31 04:45:23;;;;;;;4.80;2.00;;;3.20;83.50;;;;;;5033567;28;20041;-80
2022/01/31 04:47:48;;;;;;;4.45;1.80;;;3.20;83.50;;;;;;5003623;28;20038;-79
2022/01/31 04:50:14;;;;;;;4.88;2.03;;;3.20;83.50;;;;;;5026559;28;20048;-79
2022/01/31 04:52:42;;;;;;;9.55;2.17;;;3.20;83.50;;;;;;5007814;28;20041;-79
2022/01/31 04:55:10;;;;;;;8.77;2.15;;;3.30;83.60;;;;;;4981040;28;20045;-79
2022/01/31 04:57:36;;;;;;;18.90;8.85;;;3.30;83.50;;;;;;5031322;28;20044;-79
2022/01/31 05:00:04;;;;;;;155.30;69.20;;;3.30;83.60;;;;;;5039050;28;20032;-80
2022/01/31 05:02:30;;;;;;;32.72;14.45;;;3.30;83.60;;;;;;5011203;28;20032;-79
2022/01/31 05:04:55;;;;;;;32.90;15.63;;;3.30;83.60;;;;;;5030462;28;20078;-81
2022/01/31 05:07:21;;;;;;;65.63;30.80;;;3.30;83.60;;;;;;5008475;28;20111;-81
2022/01/31 05:09:48;;;;;;;33.63;18.52;;;3.30;84.30;;;;;;5020751;28;20125;-80
2022/01/31 05:12:13;;;;;;;44.95;15.77;;;3.30;83.60;;;;;;5010159;28;20032;-81
2022/01/31 05:14:39;;;;;;;21.60;8.00;;;3.30;83.60;;;;;;5029306;28;20031;-81
2022/01/31 05:17:05;;;;;;;12.90;3.83;;;3.30;83.60;;;;;;5018888;28;20029;-80
2022/01/31 05:19:30;;;;;;;8.23;3.95;;;3.40;83.60;;;;;;5040002;28;20314;-79
2022/01/31 05:21:56;;;;;;;13.43;4.18;;;3.40;84.40;;;;;;5010363;28;20395;-81
2022/01/31 05:24:21;;;;;;;6.85;2.55;;;3.40;83.70;;;;;;5017359;28;20534;-81
2022/01/31 05:26:51;;;;;;;12.18;3.67;;;3.40;83.70;;;;;;5012177;28;20029;-81
2022/01/31 05:29:20;;;;;;;9.45;3.08;;;3.40;84.50;;;;;;5029091;28;20036;-81
2022/01/31 05:31:46;;;;;;;4.88;2.78;;;3.40;83.80;;;;;;5027355;28;20056;-81
2022/01/31 05:34:12;;;;;;;12.95;3.28;;;3.40;83.90;;;;;;5002154;28;20048;-83
2022/01/31 05:36:41;;;;;;;9.63;2.90;;;3.40;84.00;;;;;;5015912;28;20029;-83
2022/01/31 05:39:06;;;;;;;10.73;3.08;;;3.40;84.00;;;;;;4986444;28;20503;-82
2022/01/31 05:41:32;;;;;;;8.73;2.85;;;3.40;84.10;;;;;;5025123;28;20040;-81
2022/01/31 05:43:57;;;;;;;12.55;3.10;;;3.40;84.20;;;;;;5012393;28;20041;-81
2022/01/31 05:46:23;;;;;;;11.60;2.92;;;3.40;84.30;;;;;;5042879;28;20048;-81
2022/01/31 05:48:48;;;;;;;10.32;2.70;;;3.40;84.40;;;;;;4983887;28;20030;-83
2022/01/31 05:51:18;;;;;;;10.35;3.30;;;3.40;84.40;;;;;;5011156;28;20033;-82
2022/01/31 05:53:44;;;;;;;11.02;4.15;;;3.40;84.50;;;;;;5026105;28;20063;-83
2022/01/31 05:56:10;;;;;;;13.88;3.53;;;3.30;84.50;;;;;;4993035;28;20119;-84
2022/01/31 05:58:36;;;;;;;9.02;2.45;;;3.30;84.60;;;;;;4993888;28;20398;-83
2022/01/31 06:01:01;;;;;;;6.25;2.35;;;3.30;84.70;;;;;;5022905;28;20612;-82
2022/01/31 06:03:27;;;;;;;6.68;2.35;;;3.30;84.80;;;;;;5015800;28;20034;-82
2022/01/31 06:05:52;;;;;;;20.92;5.90;;;3.20;84.90;;;;;;5017643;28;20485;-82
2022/01/31 06:08:18;;;;;;;12.75;2.70;;;3.20;85.10;;;;;;5015359;28;20577;-82
2022/01/31 06:10:45;;;;;;;22.92;4.47;;;3.20;85.20;;;;;;5028638;28;20036;-82
2022/01/31 06:13:11;;;;;;;24.65;6.30;;;3.10;85.10;;;;;;5049925;28;20032;-82
2022/01/31 06:15:37;;;;;;;10.90;3.65;;;3.10;85.30;;;;;;5012139;28;20033;-82
2022/01/31 06:18:02;;;;;;;17.65;4.53;;;3.10;85.40;;;;;;5013776;28;20155;-81
2022/01/31 06:20:28;;;;;;;9.75;3.58;;;3.00;85.40;;;;;;5029683;28;20036;-81
2022/01/31 06:22:53;;;;;;;53.55;9.68;;;3.00;85.60;;;;;;4989273;28;20068;-81
2022/01/31 06:25:19;;;;;;;21.40;5.53;;;3.00;85.70;;;;;;5005228;28;20459;-81
2022/01/31 06:27:45;;;;;;;9.95;3.08;;;2.90;85.80;;;;;;5033299;28;20028;-81
2022/01/31 06:30:10;;;;;;;7.82;2.88;;;2.90;86.70;;;;;;4994975;28;20464;-81
2022/01/31 06:32:36;;;;;;;7.22;2.40;;;2.90;86.00;;;;;;4996567;28;20026;-82
2022/01/31 06:35:02;;;;;;;21.58;8.02;;;2.90;86.10;;;;;;5025253;28;20037;-81
2022/01/31 06:37:28;;;;;;;13.32;4.15;;;2.90;86.30;;;;;;5028078;28;20039;-81
2022/01/31 06:39:53;;;;;;;5.35;2.10;;;2.80;86.30;;;;;;4987859;28;20120;-81
2022/01/31 06:42:19;;;;;;;12.27;4.30;;;2.80;86.50;;;;;;5028807;28;20044;-82
2022/01/31 06:44:45;;;;;;;4.40;2.47;;;2.80;86.50;;;;;;5010279;28;20404;-81
2022/01/31 06:47:10;;;;;;;4.32;2.05;;;2.80;86.60;;;;;;5012778;28;20045;-82
2022/01/31 06:49:36;;;;;;;4.85;2.30;;;2.80;86.70;;;;;;5015749;28;20059;-82
2022/01/31 06:52:02;;;;;;;2.83;2.28;;;2.80;86.90;;;;;;5017641;28;20407;-81
2022/01/31 06:54:27;;;;;;;3.25;2.10;;;2.70;87.00;;;;;;5005049;28;20040;-82
2022/01/31 06:56:56;;;;;;;4.38;1.92;;;2.70;87.10;;;;;;5029958;28;20682;-82
2022/01/31 06:59:21;;;;;;;5.10;2.20;;;2.70;87.30;;;;;;5046121;28;20041;-81
2022/01/31 07:01:47;;;;;;;3.60;2.33;;;2.70;87.30;;;;;;5023084;28;20091;-81
2022/01/31 07:04:12;;;;;;;4.85;2.17;;;2.70;87.30;;;;;;5003157;28;20049;-82
2022/01/31 07:06:38;;;;;;;3.90;2.10;;;2.70;87.40;;;;;;5025497;28;20033;-81
2022/01/31 07:09:04;;;;;;;4.93;2.22;;;2.70;87.50;;;;;;5014745;28;20047;-81
2022/01/31 07:11:34;;;;;;;4.63;1.92;;;2.60;87.60;;;;;;5036828;28;20036;-81
2022/01/31 07:14:01;;;;;;;2.55;1.70;;;2.60;87.60;;;;;;5045542;28;20360;-82
2022/01/31 07:16:27;;;;;;;4.13;1.90;;;2.60;87.70;;;;;;5028705;28;20446;-81
2022/01/31 07:18:59;;;;;;;4.47;1.67;;;2.60;87.80;;;;;;5016837;28;20048;-82
2022/01/31 07:21:32;;;;;;;;;;;2.60;88.00;;;;;;5007847;28;20033;-82
2022/01/31 07:26:36;;;;;;;2.90;1.65;;;2.60;87.70;;;;;;5030274;28;20059;-82
2022/01/31 07:29:01;;;;;;;2.00;1.60;;;2.70;88.00;;;;;;5032289;28;20041;-82
2022/01/31 07:31:30;;;;;;;4.28;1.60;;;2.60;88.00;;;;;;5025790;28;20087;-82
2022/01/31 07:33:55;;;;;;;5.50;1.10;;;2.70;88.20;;;;;;4971426;28;20038;-82
2022/01/31 07:36:22;;;;;;;3.30;1.10;;;2.70;88.30;;;;;;5023316;28;20044;-82
2022/01/31 07:38:47;;;;;;;5.45;4.38;;;2.70;88.30;;;;;;5013010;28;20029;-83
2022/01/31 07:41:14;;;;;;;4.53;3.33;;;2.70;88.40;;;;;;5003305;28;20045;-83
2022/01/31 07:43:44;;;;;;;3.28;1.60;;;2.70;88.40;;;;;;5014599;28;20033;-82
2022/01/31 07:46:12;;;;;;;1.88;1.48;;;2.80;88.60;;;;;;4997971;28;20534;-82
2022/01/31 07:48:37;;;;;;;1.63;1.30;;;2.80;88.70;;;;;;5007551;28;20034;-83
2022/01/31 07:51:03;;;;;;;2.65;2.00;;;2.80;88.70;;;;;;5007201;28;20025;-82
2022/01/31 07:53:28;;;;;;;3.38;2.33;;;2.80;88.80;;;;;;4996099;28;20038;-81
2022/01/31 07:55:54;;;;;;;3.88;2.10;;;2.90;88.90;;;;;;5021334;28;20093;-81
2022/01/31 07:58:20;;;;;;;1.95;1.50;;;2.90;88.90;;;;;;5017383;28;20049;-81
2022/01/31 08:00:45;;;;;;;3.13;1.40;;;2.90;89.00;;;;;;5008954;28;20039;-82
2022/01/31 08:03:12;;;;;;;2.88;1.95;;;3.00;89.10;;;;;;5003044;28;22997;-81
2022/01/31 08:05:37;;;;;;;2.92;1.75;;;3.00;89.20;;;;;;5027341;28;20025;-81
2022/01/31 08:08:03;;;;;;;3.58;1.75;;;3.00;89.20;;;;;;5017929;28;20040;-82
2022/01/31 08:10:29;;;;;;;2.47;1.83;;;3.10;89.20;;;;;;4979872;28;20556;-82
2022/01/31 08:12:55;;;;;;;1.73;1.35;;;3.10;89.20;;;;;;4992707;28;20546;-81
2022/01/31 08:15:26;;;;;;;3.55;1.92;;;3.20;89.30;;;;;;5016494;28;20029;-82
2022/01/31 08:17:52;;;;;;;5.68;3.42;;;3.20;89.40;;;;;;5014247;28;20033;-82
2022/01/31 08:20:17;;;;;;;3.85;1.92;;;3.30;89.30;;;;;;5017740;28;20044;-81
2022/01/31 08:22:43;;;;;;;4.43;2.42;;;3.40;89.50;;;;;;5016894;28;20025;-81
2022/01/31 08:25:13;;;;;;;3.42;2.63;;;3.50;89.40;;;;;;5022042;28;20054;-82
2022/01/31 08:27:41;;;;;;;1.70;1.23;;;3.50;89.40;;;;;;5029005;28;20040;-82
2022/01/31 08:30:11;;;;;;;2.08;1.17;;;3.60;89.40;;;;;;4999451;28;20083;-82
2022/01/31 08:32:44;;;;;;;2.92;1.15;;;3.60;89.30;;;;;;4979106;28;20063;-82
2022/01/31 08:37:57;;;;;;;2.75;1.70;;;3.70;89.40;;;;;;4994789;28;20415;-82
2022/01/31 08:40:23;;;;;;;2.83;1.67;;;3.70;89.30;;;;;;4984556;28;20038;-83
2022/01/31 08:42:48;;;;;;;2.47;1.40;;;3.80;89.40;;;;;;4997125;28;20025;-82
2022/01/31 08:45:14;;;;;;;2.53;1.65;;;3.80;89.40;;;;;;4982917;28;20053;-82
2022/01/31 08:47:41;;;;;;;1.95;1.30;;;3.90;89.40;;;;;;5001418;28;20466;-82
2022/01/31 08:50:08;;;;;;;2.35;1.33;;;3.90;89.40;;;;;;5010807;28;20029;-81
2022/01/31 08:52:34;;;;;;;3.83;1.83;;;4.00;89.40;;;;;;4997960;28;20021;-81
2022/01/31 08:55:00;;;;;;;5.15;1.98;;;4.00;89.40;;;;;;5004834;28;20569;-81
2022/01/31 08:57:26;;;;;;;3.08;1.23;;;4.00;89.40;;;;;;4979250;28;20034;-82
2022/01/31 08:59:51;;;;;;;4.07;1.30;;;4.00;89.40;;;;;;4982711;28;20654;-81
2022/01/31 09:02:19;;;;;;;6.88;1.38;;;4.10;89.40;;;;;;5010242;28;20025;-82
2022/01/31 09:04:47;;;;;;;5.53;1.17;;;4.10;89.50;;;;;;5000040;28;20467;-81
2022/01/31 09:07:15;;;;;;;2.20;1.13;;;4.20;89.50;;;;;;4979468;28;20029;-82
2022/01/31 09:09:41;;;;;;;2.75;1.15;;;4.20;89.60;;;;;;5010592;28;20022;-82
2022/01/31 09:12:08;;;;;;;5.13;1.65;;;4.20;89.50;;;;;;5006993;28;20511;-81
2022/01/31 09:14:34;;;;;;;4.63;1.45;;;4.20;89.50;;;;;;4983525;28;20061;-81
2022/01/31 09:17:00;;;;;;;2.58;1.55;;;4.20;89.50;;;;;;4951293;28;20456;-82
2022/01/31 09:19:26;;;;;;;3.17;2.00;;;4.30;89.50;;;;;;5003481;28;20125;-82
2022/01/31 09:21:52;;;;;;;2.33;1.17;;;4.30;89.50;;;;;;4960543;28;20519;-81
2022/01/31 09:24:18;;;;;;;3.92;1.73;;;4.30;89.50;;;;;;4988888;28;20041;-82
2022/01/31 09:26:43;;;;;;;5.75;2.40;;;4.40;89.60;;;;;;5004966;28;20042;-81
2022/01/31 09:29:09;;;;;;;2.88;1.08;;;4.40;89.50;;;;;;4994705;28;20044;-81
2022/01/31 09:31:35;;;;;;;4.57;1.23;;;4.40;89.50;;;;;;5007015;28;20038;-81
2022/01/31 09:34:00;;;;;;;5.38;1.10;;;4.50;89.50;;;;;;4990170;28;20041;-81
2022/01/31 09:36:27;;;;;;;5.45;2.00;;;4.50;89.50;;;;;;4983011;28;20037;-81
2022/01/31 09:38:53;;;;;;;4.47;2.10;;;4.50;89.40;;;;;;5007415;28;20045;-82
2022/01/31 09:41:22;;;;;;;8.95;2.85;;;4.60;89.40;;;;;;5031712;28;20159;-82
2022/01/31 09:44:05;;;;;;;3.30;1.33;;;4.60;89.40;;;;;;5003977;28;20038;-82
2022/01/31 09:48:56;;;;;;;6.43;1.60;;;4.70;89.40;;;;;;5011964;28;20082;-81
2022/01/31 09:51:24;;;;;;;3.42;1.10;;;4.70;89.40;;;;;;5027700;28;20029;-82
2022/01/31 09:53:54;;;;;;;6.88;1.80;;;4.70;89.30;;;;;;4992867;28;20540;-82
2022/01/31 09:56:22;;;;;;;4.00;1.55;;;4.80;89.40;;;;;;4992144;28;20048;-82
2022/01/31 09:58:48;;;;;;;6.03;3.03;;;4.80;89.40;;;;;;5050522;28;20034;-82
2022/01/31 10:01:21;;;;;;;3.72;1.60;;;4.80;89.40;;;;;;5018196;28;20423;-81
2022/01/31 10:03:52;;;;;;;4.25;2.42;;;4.80;89.40;;;;;;5018455;28;20064;-82
2022/01/31 10:06:20;;;;;;;3.38;1.30;;;4.80;89.40;;;;;;5026348;28;20338;-82
2022/01/31 10:08:45;;;;;;;2.28;1.10;;;4.80;89.30;;;;;;5000981;28;20025;-82
2022/01/31 10:11:27;;;;;;;2.97;1.40;;;4.80;89.30;;;;;;5005362;28;20099;-82
2022/01/31 10:16:43;;;;;;;2.10;0.80;;;4.80;89.30;;;;;;5036689;28;19923;-82
2022/01/31 10:19:09;;;;;;;4.35;0.82;;;4.90;89.20;;;;;;5012582;28;20506;-82
2022/01/31 10:21:59;;;;;;;1.52;0.82;;;4.80;89.20;;;;;;4996719;28;20107;-82
2022/01/31 10:24:25;;;;;;;28.70;10.68;;;4.90;89.40;;;;;;5026946;28;20044;-82
2022/01/31 10:26:51;;;;;;;7.85;3.10;;;4.90;89.40;;;;;;5017548;28;20033;-82
2022/01/31 10:29:18;;;;;;;3.13;1.00;;;4.90;89.40;;;;;;5009204;28;20037;-81
2022/01/31 10:31:54;;;;;;;2.63;0.93;;;5.00;89.50;;;;;;5027892;28;20044;-81
2022/01/31 10:34:22;;;;;;;3.33;1.40;;;5.00;89.50;;;;;;5024647;28;20025;-82
2022/01/31 10:36:48;;;;;;;2.15;1.45;;;5.00;89.30;;;;;;5007042;28;20037;-82
2022/01/31 10:43:12;;;;;;;4.05;1.27;;;5.10;89.30;;;;;;5009635;28;20044;-81
2022/01/31 10:45:24;;;;;;;3.60;1.10;;;5.10;89.40;;;;;;5027733;28;20608;-82
2022/01/31 10:50:54;;;;;;;2.38;1.77;;;5.10;89.10;;;;;;5016287;28;20098;-82
2022/01/31 10:53:20;;;;;;;2.15;1.55;;;5.20;89.20;;;;;;5018944;28;20544;-82
2022/01/31 10:55:55;;;;;;;6.82;2.28;;;5.20;89.20;;;;;;5029638;28;20043;-82
2022/01/31 10:58:21;;;;;;;3.63;1.17;;;5.20;89.30;;;;;;4996913;28;20092;-82
2022/01/31 11:00:46;;;;;;;2.28;0.80;;;5.20;89.20;;;;;;4979502;28;20052;-81
2022/01/31 11:03:32;;;;;;;1.77;0.68;;;5.30;89.30;;;;;;5015374;28;20533;-82
2022/01/31 11:06:00;;;;;;;3.63;0.98;;;5.30;89.50;;;;;;4992911;28;20037;-82
2022/01/31 11:08:26;;;;;;;0.98;0.82;;;5.30;89.20;;;;;;5004906;28;20055;-82
2022/01/31 11:10:57;;;;;;;2.25;1.00;;;5.40;89.20;;;;;;5002959;28;20029;-82
2022/01/31 11:13:23;;;;;;;1.25;0.68;;;5.40;89.20;;;;;;5011609;28;20053;-82
2022/01/31 11:15:49;;;;;;;1.33;0.68;;;5.40;89.10;;;;;;5013576;28;20095;-82
2022/01/31 11:18:15;;;;;;;1.67;1.00;;;5.40;89.20;;;;;;5011960;28;20304;-82
2022/01/31 11:20:43;;;;;;;1.83;0.57;;;5.40;89.20;;;;;;4988200;28;20392;-82
2022/01/31 11:23:09;;;;;;;1.30;0.60;;;5.40;89.20;;;;;;5010924;28;20039;-82
2022/01/31 11:25:35;;;;;;;3.72;1.25;;;5.40;89.10;;;;;;5023662;28;20040;-82
2022/01/31 11:28:02;;;;;;;3.67;1.50;;;5.40;89.20;;;;;;5008360;28;20078;-82
2022/01/31 11:30:28;;;;;;;2.55;0.77;;;5.40;89.20;;;;;;4984338;28;20116;-82
2022/01/31 11:32:54;;;;;;;0.95;0.63;;;5.40;89.30;;;;;;4978544;28;20116;-82
2022/01/31 11:35:20;;;;;;;0.50;0.45;;;5.40;89.30;;;;;;4999144;28;20036;-82
2022/01/31 11:37:46;;;;;;;2.10;0.60;;;5.40;89.20;;;;;;4978281;28;20037;-81
2022/01/31 11:40:12;;;;;;;1.65;0.43;;;5.40;89.30;;;;;;5032364;28;20110;-82
2022/01/31 11:42:41;;;;;;;1.27;1.00;;;5.40;89.40;;;;;;5006992;28;20041;-83
2022/01/31 11:45:12;;;;;;;1.08;0.80;;;5.30;89.40;;;;;;5022603;28;20072;-82
2022/01/31 11:47:38;;;;;;;1.73;0.68;;;5.30;89.40;;;;;;5045214;28;20899;-82
2022/01/31 11:50:05;;;;;;;1.80;0.93;;;5.30;89.50;;;;;;5005304;28;20037;-82
2022/01/31 11:52:34;;;;;;;1.85;0.80;;;5.30;89.50;;;;;;5001188;28;20153;-82
2022/01/31 11:55:01;;;;;;;1.50;0.70;;;5.30;89.50;;;;;;5006709;28;20044;-83
2022/01/31 11:57:31;;;;;;;2.33;0.70;;;5.30;89.60;;;;;;5023808;28;20049;-82
2022/01/31 12:00:18;;;;;;;1.50;0.50;;;5.30;89.60;;;;;;5008525;28;20037;-83
2022/01/31 12:02:46;;;;;;;0.90;0.60;;;5.30;89.70;;;;;;5018456;28;20029;-83
2022/01/31 12:05:20;;;;;;;2.75;1.00;;;5.30;89.60;;;;;;5001876;28;20061;-82
2022/01/31 12:07:47;;;;;;;0.32;0.32;;;5.20;89.60;;;;;;5001287;28;20492;-82
2022/01/31 12:10:23;;;;;;;2.97;0.77;;;5.20;89.60;;;;;;4986673;28;20171;-83
2022/01/31 12:18:21;;;;;;;1.75;1.05;;;5.20;89.60;;;;;;5027945;28;20110;-82
2022/01/31 12:23:41;;;;;;;1.20;0.70;;;5.10;89.60;;;;;;4997289;28;20079;-82
2022/01/31 12:26:44;;;;;;;1.52;0.50;;;5.10;89.60;;;;;;4987306;28;20024;-81
2022/01/31 12:29:15;;;;;;;1.38;0.35;;;5.10;89.90;;;;;;4999285;28;20029;-81
2022/01/31 12:31:48;;;;;;;0.73;0.50;;;5.10;89.70;;;;;;5039111;28;20049;-82
2022/01/31 12:34:27;;;;;;;2.00;0.47;;;5.10;89.70;;;;;;5025053;28;20399;-82
2022/01/31 12:36:55;;;;;;;2.45;0.50;;;5.10;89.90;;;;;;5038798;28;20560;-82
2022/01/31 12:39:36;;;;;;;0.17;0.17;;;5.10;89.90;;;;;;5006952;28;20542;-81
2022/01/31 12:42:32;;;;;;;0.28;0.28;;;5.00;89.90;;;;;;5041841;28;20043;-81
2022/01/31 12:44:58;;;;;;;1.33;0.30;;;5.00;89.80;;;;;;5025494;28;20042;-81
2022/01/31 12:47:23;;;;;;;0.45;0.35;;;5.00;89.90;;;;;;5001627;28;20513;-82
2022/01/31 12:50:20;;;;;;;0.30;0.30;;;5.00;89.90;;;;;;4995755;28;20040;-81
2022/01/31 12:52:46;;;;;;;0.38;0.35;;;5.00;90.00;;;;;;5008360;28;20033;-81
2022/01/31 12:55:12;;;;;;;0.75;0.75;;;5.00;90.00;;;;;;5023409;28;20045;-81
2022/01/31 12:57:53;;;;;;;0.63;0.30;;;5.00;90.00;;;;;;5017070;28;20183;-81
2022/01/31 13:00:39;;;;;;;0.45;0.28;;;5.00;90.00;;;;;;5012428;28;20037;-82
2022/01/31 13:03:05;;;;;;;2.20;0.30;;;5.00;90.00;;;;;;5007017;28;20028;-82
2022/01/31 13:05:34;;;;;;;0.68;0.30;;;5.00;90.00;;;;;;5009650;28;20065;-82
2022/01/31 13:08:00;;;;;;;0.28;0.20;;;4.90;90.00;;;;;;5029620;28;20127;-82
2022/01/31 13:10:36;;;;;;;0.20;0.20;;;4.90;90.00;;;;;;4996152;28;20463;-83
2022/01/31 13:13:03;;;;;;;0.82;0.30;;;4.90;90.10;;;;;;5025252;28;20033;-82
2022/01/31 13:15:29;;;;;;;2.85;0.35;;;4.90;90.00;;;;;;5008229;28;20068;-83
2022/01/31 13:18:04;;;;;;;0.77;0.40;;;5.00;90.00;;;;;;5023638;28;20459;-82
2022/01/31 13:20:30;;;;;;;1.17;0.50;;;4.90;90.10;;;;;;5026282;28;20039;-82
2022/01/31 13:22:55;;;;;;;1.55;0.70;;;5.00;90.10;;;;;;5009484;28;20025;-82